sensor_id;sensor_type;location;lat;lon;timestamp;temperature;humidity
20740;DHT22;10530;49.968;19.844;2022-11-03T00:00:15;8.50;99.90
20740;DHT22;10530;49.968;19.844;2022-11-03T00:05:18;8.60;99.90
20740;DHT22;10530;49.968;19.844;2022-11-03T00:10:39;8.60;99.90
20740;DHT22;10530;49.968;19.844;2022-11-03T00:15:51;8.90;99.90
20740;DHT22;10530;49.968;19.844;2022-11-03T00:20:58;9.00;99.90
20740;DHT22;10530;49.968;19.844;2022-11-03T00:26:10;8.80;99.90
20740;DHT22;10530;49.968;19.844;2022-11-03T00:31:29;8.60;99.90
20740;DHT22;10530;49.968;19.844;2022-11-03T00:36:34;8.50;99.90
20740;DHT22;10530;49.968;19.844;2022-11-03T00:41:38;8.30;99.90
20740;DHT22;10530;49.968;19.844;2022-11-03T00:46:41;8.10;99.90
20740;DHT22;10530;49.968;19.844;2022-11-03T00:51:43;8.00;99.90
20740;DHT22;10530;49.968;19.844;2022-11-03T00:56:46;8.00;99.90
20740;DHT22;10530;49.968;19.844;2022-11-03T01:01:49;8.00;99.90
20740;DHT22;10530;49.968;19.844;2022-11-03T01:06:54;7.90;99.90
20740;DHT22;10530;49.968;19.844;2022-11-03T01:12:12;7.80;99.90
20740;DHT22;10530;49.968;19.844;2022-11-03T01:17:17;7.80;99.90
20740;DHT22;10530;49.968;19.844;2022-11-03T01:22:21;7.60;99.90
20740;DHT22;10530;49.968;19.844;2022-11-03T01:27:24;7.50;99.90
20740;DHT22;10530;49.968;19.844;2022-11-03T01:32:27;7.40;99.90
20740;DHT22;10530;49.968;19.844;2022-11-03T01:37:30;7.40;99.90
20740;DHT22;10530;49.968;19.844;2022-11-03T01:42:33;7.30;99.90
20740;DHT22;10530;49.968;19.844;2022-11-03T01:47:35;7.20;99.90
20740;DHT22;10530;49.968;19.844;2022-11-03T01:52:43;7.20;99.90
20740;DHT22;10530;49.968;19.844;2022-11-03T01:58:07;7.10;99.90
20740;DHT22;10530;49.968;19.844;2022-11-03T02:03:12;6.90;99.90
20740;DHT22;10530;49.968;19.844;2022-11-03T02:08:23;6.90;99.90
20740;DHT22;10530;49.968;19.844;2022-11-03T02:13:27;6.80;99.90
20740;DHT22;10530;49.968;19.844;2022-11-03T02:18:31;6.80;99.90
20740;DHT22;10530;49.968;19.844;2022-11-03T02:23:42;6.70;99.90
20740;DHT22;10530;49.968;19.844;2022-11-03T02:28:48;6.80;99.90
20740;DHT22;10530;49.968;19.844;2022-11-03T02:39:09;6.80;99.90
20740;DHT22;10530;49.968;19.844;2022-11-03T02:44:15;6.80;99.90
20740;DHT22;10530;49.968;19.844;2022-11-03T02:49:18;7.00;99.90
20740;DHT22;10530;49.968;19.844;2022-11-03T02:54:41;7.00;99.90
20740;DHT22;10530;49.968;19.844;2022-11-03T02:59:52;6.80;99.90
20740;DHT22;10530;49.968;19.844;2022-11-03T03:05:01;6.70;99.90
20740;DHT22;10530;49.968;19.844;2022-11-03T03:10:17;6.50;99.90
20740;DHT22;10530;49.968;19.844;2022-11-03T03:15:33;6.50;99.90
20740;DHT22;10530;49.968;19.844;2022-11-03T03:20:57;6.40;99.90
20740;DHT22;10530;49.968;19.844;2022-11-03T03:26:11;6.30;99.90
20740;DHT22;10530;49.968;19.844;2022-11-03T03:31:17;6.30;99.90
20740;DHT22;10530;49.968;19.844;2022-11-03T03:36:21;6.20;99.90
20740;DHT22;10530;49.968;19.844;2022-11-03T03:41:27;6.10;99.90
20740;DHT22;10530;49.968;19.844;2022-11-03T03:47:05;6.10;99.90
20740;DHT22;10530;49.968;19.844;2022-11-03T03:52:09;6.10;99.90
20740;DHT22;10530;49.968;19.844;2022-11-03T03:57:16;6.00;99.90
20740;DHT22;10530;49.968;19.844;2022-11-03T04:02:19;5.90;99.90
20740;DHT22;10530;49.968;19.844;2022-11-03T04:07:22;5.90;99.90
20740;DHT22;10530;49.968;19.844;2022-11-03T04:12:45;5.90;99.90
20740;DHT22;10530;49.968;19.844;2022-11-03T04:18:06;5.80;99.90
20740;DHT22;10530;49.968;19.844;2022-11-03T04:23:27;5.80;99.90
20740;DHT22;10530;49.968;19.844;2022-11-03T04:28:30;5.70;99.90
20740;DHT22;10530;49.968;19.844;2022-11-03T04:33:33;5.70;99.90
20740;DHT22;10530;49.968;19.844;2022-11-03T04:38:36;5.60;99.90
20740;DHT22;10530;49.968;19.844;2022-11-03T04:43:39;5.50;99.90
20740;DHT22;10530;49.968;19.844;2022-11-03T04:48:42;5.30;99.90
20740;DHT22;10530;49.968;19.844;2022-11-03T04:54:18;5.10;99.90
20740;DHT22;10530;49.968;19.844;2022-11-03T04:59:23;5.00;99.90
20740;DHT22;10530;49.968;19.844;2022-11-03T05:04:26;4.90;99.90
20740;DHT22;10530;49.968;19.844;2022-11-03T05:09:29;4.90;99.90
20740;DHT22;10530;49.968;19.844;2022-11-03T05:14:33;4.80;99.90
20740;DHT22;10530;49.968;19.844;2022-11-03T05:19:38;4.80;99.90
20740;DHT22;10530;49.968;19.844;2022-11-03T05:24:43;4.80;99.90
20740;DHT22;10530;49.968;19.844;2022-11-03T05:29:47;4.80;99.90
20740;DHT22;10530;49.968;19.844;2022-11-03T05:34:51;4.80;99.90
20740;DHT22;10530;49.968;19.844;2022-11-03T05:40:22;4.80;99.90
20740;DHT22;10530;49.968;19.844;2022-11-03T05:45:25;4.80;99.90
20740;DHT22;10530;49.968;19.844;2022-11-03T05:50:33;4.60;99.90
20740;DHT22;10530;49.968;19.844;2022-11-03T05:55:36;4.40;99.90
20740;DHT22;10530;49.968;19.844;2022-11-03T06:00:41;4.40;99.90
20740;DHT22;10530;49.968;19.844;2022-11-03T06:05:50;4.40;99.90
20740;DHT22;10530;49.968;19.844;2022-11-03T06:10:56;4.50;99.90
20740;DHT22;10530;49.968;19.844;2022-11-03T06:16:05;4.60;99.90
20740;DHT22;10530;49.968;19.844;2022-11-03T06:21:18;4.70;99.90
20740;DHT22;10530;49.968;19.844;2022-11-03T06:26:24;6.10;99.90
20740;DHT22;10530;49.968;19.844;2022-11-03T06:31:29;6.10;99.90
20740;DHT22;10530;49.968;19.844;2022-11-03T06:36:36;6.70;99.90
20740;DHT22;10530;49.968;19.844;2022-11-03T06:41:38;6.10;99.90
20740;DHT22;10530;49.968;19.844;2022-11-03T06:46:41;6.50;99.90
20740;DHT22;10530;49.968;19.844;2022-11-03T06:51:44;6.60;99.90
20740;DHT22;10530;49.968;19.844;2022-11-03T06:56:46;8.10;99.90
20740;DHT22;10530;49.968;19.844;2022-11-03T07:01:53;8.40;99.90
20740;DHT22;10530;49.968;19.844;2022-11-03T07:07:02;8.40;99.90
20740;DHT22;10530;49.968;19.844;2022-11-03T07:12:14;9.40;99.90
20740;DHT22;10530;49.968;19.844;2022-11-03T07:17:20;10.20;99.90
20740;DHT22;10530;49.968;19.844;2022-11-03T07:22:25;11.10;99.90
20740;DHT22;10530;49.968;19.844;2022-11-03T07:27:30;10.10;99.90
20740;DHT22;10530;49.968;19.844;2022-11-03T07:32:38;9.60;99.90
20740;DHT22;10530;49.968;19.844;2022-11-03T07:37:40;9.60;99.90
20740;DHT22;10530;49.968;19.844;2022-11-03T07:42:43;10.30;99.90
20740;DHT22;10530;49.968;19.844;2022-11-03T07:47:46;10.90;99.90
20740;DHT22;10530;49.968;19.844;2022-11-03T07:52:49;11.40;99.90
20740;DHT22;10530;49.968;19.844;2022-11-03T07:57:52;11.90;99.90
20740;DHT22;10530;49.968;19.844;2022-11-03T08:02:58;12.50;99.90
20740;DHT22;10530;49.968;19.844;2022-11-03T08:08:01;12.50;99.90
20740;DHT22;10530;49.968;19.844;2022-11-03T08:13:04;12.50;99.90
20740;DHT22;10530;49.968;19.844;2022-11-03T08:18:07;14.00;99.90
20740;DHT22;10530;49.968;19.844;2022-11-03T08:23:10;13.90;99.90
20740;DHT22;10530;49.968;19.844;2022-11-03T08:28:27;14.90;99.90
20740;DHT22;10530;49.968;19.844;2022-11-03T08:33:31;14.70;99.90
20740;DHT22;10530;49.968;19.844;2022-11-03T08:38:34;15.40;99.90
20740;DHT22;10530;49.968;19.844;2022-11-03T08:43:37;19.70;99.90
20740;DHT22;10530;49.968;19.844;2022-11-03T08:48:39;23.20;86.30
20740;DHT22;10530;49.968;19.844;2022-11-03T08:53:43;26.10;55.30
20740;DHT22;10530;49.968;19.844;2022-11-03T08:58:46;26.30;39.10
20740;DHT22;10530;49.968;19.844;2022-11-03T09:03:49;26.20;35.50
20740;DHT22;10530;49.968;19.844;2022-11-03T09:08:52;26.00;33.60
20740;DHT22;10530;49.968;19.844;2022-11-03T09:14:15;26.60;28.80
20740;DHT22;10530;49.968;19.844;2022-11-03T09:19:18;25.40;30.30
20740;DHT22;10530;49.968;19.844;2022-11-03T09:24:21;26.30;28.30
20740;DHT22;10530;49.968;19.844;2022-11-03T09:29:24;26.50;27.10
20740;DHT22;10530;49.968;19.844;2022-11-03T09:34:40;25.20;28.70
20740;DHT22;10530;49.968;19.844;2022-11-03T09:39:43;24.60;29.00
20740;DHT22;10530;49.968;19.844;2022-11-03T09:44:46;24.90;29.00
20740;DHT22;10530;49.968;19.844;2022-11-03T09:49:51;25.50;26.50
20740;DHT22;10530;49.968;19.844;2022-11-03T09:54:56;26.50;23.90
20740;DHT22;10530;49.968;19.844;2022-11-03T10:00:03;26.70;23.40
20740;DHT22;10530;49.968;19.844;2022-11-03T10:05:26;26.10;23.70
20740;DHT22;10530;49.968;19.844;2022-11-03T10:10:30;26.60;21.20
20740;DHT22;10530;49.968;19.844;2022-11-03T10:15:34;25.50;23.90
20740;DHT22;10530;49.968;19.844;2022-11-03T10:20:37;25.20;24.80
20740;DHT22;10530;49.968;19.844;2022-11-03T10:25:42;24.60;25.00
20740;DHT22;10530;49.968;19.844;2022-11-03T10:30:55;23.60;25.70
20740;DHT22;10530;49.968;19.844;2022-11-03T10:41:19;22.80;28.30
20740;DHT22;10530;49.968;19.844;2022-11-03T10:46:22;23.70;28.90
20740;DHT22;10530;49.968;19.844;2022-11-03T10:51:51;23.60;28.80
20740;DHT22;10530;49.968;19.844;2022-11-03T10:56:54;22.80;28.90
20740;DHT22;10530;49.968;19.844;2022-11-03T11:01:58;23.30;28.50
20740;DHT22;10530;49.968;19.844;2022-11-03T11:07:01;23.30;29.90
20740;DHT22;10530;49.968;19.844;2022-11-03T11:12:13;24.00;28.90
20740;DHT22;10530;49.968;19.844;2022-11-03T11:17:40;23.70;28.30
20740;DHT22;10530;49.968;19.844;2022-11-03T11:22:44;23.70;28.00
20740;DHT22;10530;49.968;19.844;2022-11-03T11:33:23;23.40;28.00
20740;DHT22;10530;49.968;19.844;2022-11-03T11:43:50;22.60;27.80
20740;DHT22;10530;49.968;19.844;2022-11-03T11:54:14;23.80;26.90
20740;DHT22;10530;49.968;19.844;2022-11-03T11:59:23;22.50;27.40
20740;DHT22;10530;49.968;19.844;2022-11-03T12:04:28;22.40;27.90
20740;DHT22;10530;49.968;19.844;2022-11-03T12:09:33;22.40;28.20
20740;DHT22;10530;49.968;19.844;2022-11-03T12:14:37;22.10;29.30
20740;DHT22;10530;49.968;19.844;2022-11-03T12:19:42;22.30;28.90
20740;DHT22;10530;49.968;19.844;2022-11-03T12:24:50;22.60;28.90
20740;DHT22;10530;49.968;19.844;2022-11-03T12:29:56;22.40;28.90
20740;DHT22;10530;49.968;19.844;2022-11-03T12:34:59;21.80;30.60
20740;DHT22;10530;49.968;19.844;2022-11-03T12:40:02;22.30;29.40
20740;DHT22;10530;49.968;19.844;2022-11-03T12:45:06;21.80;28.40
20740;DHT22;10530;49.968;19.844;2022-11-03T12:50:10;22.30;30.00
20740;DHT22;10530;49.968;19.844;2022-11-03T12:55:13;21.10;29.90
20740;DHT22;10530;49.968;19.844;2022-11-03T13:00:16;20.40;31.00
20740;DHT22;10530;49.968;19.844;2022-11-03T13:05:19;20.60;30.20
20740;DHT22;10530;49.968;19.844;2022-11-03T13:10:22;20.50;31.00
20740;DHT22;10530;49.968;19.844;2022-11-03T13:15:24;20.80;32.70
20740;DHT22;10530;49.968;19.844;2022-11-03T13:20:27;20.70;32.00
20740;DHT22;10530;49.968;19.844;2022-11-03T13:25:30;21.30;31.20
20740;DHT22;10530;49.968;19.844;2022-11-03T13:30:33;21.30;31.20
20740;DHT22;10530;49.968;19.844;2022-11-03T13:35:36;21.10;31.80
20740;DHT22;10530;49.968;19.844;2022-11-03T13:40:39;20.50;32.80
20740;DHT22;10530;49.968;19.844;2022-11-03T13:46:02;19.30;36.50
20740;DHT22;10530;49.968;19.844;2022-11-03T13:51:06;18.20;40.00
20740;DHT22;10530;49.968;19.844;2022-11-03T13:56:13;17.30;41.80
20740;DHT22;10530;49.968;19.844;2022-11-03T14:01:23;16.90;45.30
20740;DHT22;10530;49.968;19.844;2022-11-03T14:06:26;16.50;48.00
20740;DHT22;10530;49.968;19.844;2022-11-03T14:11:29;16.00;51.90
20740;DHT22;10530;49.968;19.844;2022-11-03T14:16:51;15.50;55.90
20740;DHT22;10530;49.968;19.844;2022-11-03T14:21:53;15.40;60.00
20740;DHT22;10530;49.968;19.844;2022-11-03T14:26:56;15.10;66.50
20740;DHT22;10530;49.968;19.844;2022-11-03T14:31:59;15.00;72.70
20740;DHT22;10530;49.968;19.844;2022-11-03T14:37:03;14.70;80.40
20740;DHT22;10530;49.968;19.844;2022-11-03T14:42:10;14.40;89.60
20740;DHT22;10530;49.968;19.844;2022-11-03T14:47:19;14.20;94.20
20740;DHT22;10530;49.968;19.844;2022-11-03T14:52:25;13.90;99.90
20740;DHT22;10530;49.968;19.844;2022-11-03T14:57:27;13.60;99.90
20740;DHT22;10530;49.968;19.844;2022-11-03T15:02:30;13.40;99.90
20740;DHT22;10530;49.968;19.844;2022-11-03T15:07:34;13.10;99.90
20740;DHT22;10530;49.968;19.844;2022-11-03T15:12:36;12.90;99.90
20740;DHT22;10530;49.968;19.844;2022-11-03T15:17:39;12.80;99.90
20740;DHT22;10530;49.968;19.844;2022-11-03T15:22:42;12.60;99.90
20740;DHT22;10530;49.968;19.844;2022-11-03T15:28:05;12.40;99.90
20740;DHT22;10530;49.968;19.844;2022-11-03T15:33:08;12.30;99.90
20740;DHT22;10530;49.968;19.844;2022-11-03T15:38:11;12.10;99.90
20740;DHT22;10530;49.968;19.844;2022-11-03T15:43:14;12.00;99.90
20740;DHT22;10530;49.968;19.844;2022-11-03T15:48:17;11.80;99.90
20740;DHT22;10530;49.968;19.844;2022-11-03T15:53:19;11.70;99.90
20740;DHT22;10530;49.968;19.844;2022-11-03T15:58:22;11.60;99.90
20740;DHT22;10530;49.968;19.844;2022-11-03T16:03:25;11.50;99.90
20740;DHT22;10530;49.968;19.844;2022-11-03T16:08:28;11.40;99.90
20740;DHT22;10530;49.968;19.844;2022-11-03T16:13:31;11.30;99.90
20740;DHT22;10530;49.968;19.844;2022-11-03T16:18:34;11.30;99.90
20740;DHT22;10530;49.968;19.844;2022-11-03T16:23:36;11.30;99.90
20740;DHT22;10530;49.968;19.844;2022-11-03T16:28:39;11.30;99.90
20740;DHT22;10530;49.968;19.844;2022-11-03T16:33:42;11.20;99.90
20740;DHT22;10530;49.968;19.844;2022-11-03T16:38:46;11.20;99.90
20740;DHT22;10530;49.968;19.844;2022-11-03T16:43:48;11.10;99.90
20740;DHT22;10530;49.968;19.844;2022-11-03T16:48:51;11.00;99.90
20740;DHT22;10530;49.968;19.844;2022-11-03T16:53:54;11.00;99.90
20740;DHT22;10530;49.968;19.844;2022-11-03T16:58:58;10.90;99.90
20740;DHT22;10530;49.968;19.844;2022-11-03T17:04:01;10.80;99.90
20740;DHT22;10530;49.968;19.844;2022-11-03T17:09:05;10.80;99.90
20740;DHT22;10530;49.968;19.844;2022-11-03T17:14:09;10.90;99.90
20740;DHT22;10530;49.968;19.844;2022-11-03T17:19:15;11.00;99.90
20740;DHT22;10530;49.968;19.844;2022-11-03T17:24:18;11.10;99.90
20740;DHT22;10530;49.968;19.844;2022-11-03T17:29:37;11.10;99.90
20740;DHT22;10530;49.968;19.844;2022-11-03T17:34:40;11.00;99.90
20740;DHT22;10530;49.968;19.844;2022-11-03T17:39:43;10.80;99.90
20740;DHT22;10530;49.968;19.844;2022-11-03T17:44:48;10.80;99.90
20740;DHT22;10530;49.968;19.844;2022-11-03T17:49:51;10.80;99.90
20740;DHT22;10530;49.968;19.844;2022-11-03T17:54:55;10.70;99.90
20740;DHT22;10530;49.968;19.844;2022-11-03T17:59:58;10.60;99.90
20740;DHT22;10530;49.968;19.844;2022-11-03T18:05:21;10.50;99.90
20740;DHT22;10530;49.968;19.844;2022-11-03T18:10:31;10.40;99.90
20740;DHT22;10530;49.968;19.844;2022-11-03T18:15:35;10.50;99.90
20740;DHT22;10530;49.968;19.844;2022-11-03T18:20:44;10.60;99.90
20740;DHT22;10530;49.968;19.844;2022-11-03T18:25:54;10.40;99.90
20740;DHT22;10530;49.968;19.844;2022-11-03T18:30:57;10.40;99.90
20740;DHT22;10530;49.968;19.844;2022-11-03T18:36:05;10.40;99.90
20740;DHT22;10530;49.968;19.844;2022-11-03T18:41:19;10.40;99.90
20740;DHT22;10530;49.968;19.844;2022-11-03T18:46:41;10.40;99.90
20740;DHT22;10530;49.968;19.844;2022-11-03T18:51:54;10.30;99.90
20740;DHT22;10530;49.968;19.844;2022-11-03T18:57:04;10.30;99.90
20740;DHT22;10530;49.968;19.844;2022-11-03T19:02:21;10.20;99.90
20740;DHT22;10530;49.968;19.844;2022-11-03T19:07:28;10.20;99.90
20740;DHT22;10530;49.968;19.844;2022-11-03T19:12:32;10.20;99.90
20740;DHT22;10530;49.968;19.844;2022-11-03T19:17:40;10.10;99.90
20740;DHT22;10530;49.968;19.844;2022-11-03T19:22:44;10.00;99.90
20740;DHT22;10530;49.968;19.844;2022-11-03T19:27:48;9.90;99.90
20740;DHT22;10530;49.968;19.844;2022-11-03T19:32:53;9.80;99.90
20740;DHT22;10530;49.968;19.844;2022-11-03T19:38:11;9.70;99.90
20740;DHT22;10530;49.968;19.844;2022-11-03T19:43:15;9.80;99.90
20740;DHT22;10530;49.968;19.844;2022-11-03T19:48:18;9.70;99.90
20740;DHT22;10530;49.968;19.844;2022-11-03T19:53:27;9.70;99.90
20740;DHT22;10530;49.968;19.844;2022-11-03T19:58:30;9.70;99.90
20740;DHT22;10530;49.968;19.844;2022-11-03T20:03:33;9.70;99.90
20740;DHT22;10530;49.968;19.844;2022-11-03T20:08:36;9.80;99.90
20740;DHT22;10530;49.968;19.844;2022-11-03T20:13:41;9.70;99.90
20740;DHT22;10530;49.968;19.844;2022-11-03T20:18:45;9.70;99.90
20740;DHT22;10530;49.968;19.844;2022-11-03T20:23:50;9.80;99.90
20740;DHT22;10530;49.968;19.844;2022-11-03T20:28:55;9.70;99.90
20740;DHT22;10530;49.968;19.844;2022-11-03T20:33:58;9.80;99.90
20740;DHT22;10530;49.968;19.844;2022-11-03T20:39:01;9.80;99.90
20740;DHT22;10530;49.968;19.844;2022-11-03T20:44:07;9.70;99.90
20740;DHT22;10530;49.968;19.844;2022-11-03T20:49:10;9.60;99.90
20740;DHT22;10530;49.968;19.844;2022-11-03T20:54:18;9.60;99.90
20740;DHT22;10530;49.968;19.844;2022-11-03T20:59:21;9.60;99.90
20740;DHT22;10530;49.968;19.844;2022-11-03T21:04:27;9.60;99.90
20740;DHT22;10530;49.968;19.844;2022-11-03T21:09:30;9.60;99.90
20740;DHT22;10530;49.968;19.844;2022-11-03T21:14:33;9.50;99.90
20740;DHT22;10530;49.968;19.844;2022-11-03T21:19:36;9.50;99.90
20740;DHT22;10530;49.968;19.844;2022-11-03T21:24:57;9.50;99.90
20740;DHT22;10530;49.968;19.844;2022-11-03T21:30:00;9.50;99.90
20740;DHT22;10530;49.968;19.844;2022-11-03T21:35:04;9.50;99.90
20740;DHT22;10530;49.968;19.844;2022-11-03T21:40:08;9.50;99.90
20740;DHT22;10530;49.968;19.844;2022-11-03T21:45:11;9.50;99.90
20740;DHT22;10530;49.968;19.844;2022-11-03T21:50:15;9.60;99.90
20740;DHT22;10530;49.968;19.844;2022-11-03T21:55:18;9.60;99.90
20740;DHT22;10530;49.968;19.844;2022-11-03T22:00:21;9.50;99.90
20740;DHT22;10530;49.968;19.844;2022-11-03T22:05:24;9.30;99.90
20740;DHT22;10530;49.968;19.844;2022-11-03T22:10:27;9.20;99.90
20740;DHT22;10530;49.968;19.844;2022-11-03T22:15:30;9.20;99.90
20740;DHT22;10530;49.968;19.844;2022-11-03T22:20:52;9.00;99.90
20740;DHT22;10530;49.968;19.844;2022-11-03T22:26:14;9.30;99.90
20740;DHT22;10530;49.968;19.844;2022-11-03T22:31:36;9.20;99.90
20740;DHT22;10530;49.968;19.844;2022-11-03T22:36:42;9.10;99.90
20740;DHT22;10530;49.968;19.844;2022-11-03T22:41:44;9.30;99.90
20740;DHT22;10530;49.968;19.844;2022-11-03T22:47:08;9.40;99.90
20740;DHT22;10530;49.968;19.844;2022-11-03T22:52:13;9.30;99.90
20740;DHT22;10530;49.968;19.844;2022-11-03T22:57:16;9.00;99.90
20740;DHT22;10530;49.968;19.844;2022-11-03T23:02:18;8.80;99.90
20740;DHT22;10530;49.968;19.844;2022-11-03T23:07:22;8.50;99.90
20740;DHT22;10530;49.968;19.844;2022-11-03T23:12:32;8.40;99.90
20740;DHT22;10530;49.968;19.844;2022-11-03T23:17:35;8.50;99.90
20740;DHT22;10530;49.968;19.844;2022-11-03T23:22:56;8.40;99.90
20740;DHT22;10530;49.968;19.844;2022-11-03T23:27:59;8.30;99.90
20740;DHT22;10530;49.968;19.844;2022-11-03T23:33:02;8.20;99.90
20740;DHT22;10530;49.968;19.844;2022-11-03T23:38:05;8.40;99.90
20740;DHT22;10530;49.968;19.844;2022-11-03T23:43:08;8.60;99.90
20740;DHT22;10530;49.968;19.844;2022-11-03T23:48:11;8.60;99.90
20740;DHT22;10530;49.968;19.844;2022-11-03T23:53:32;8.60;99.90
20740;DHT22;10530;49.968;19.844;2022-11-03T23:58:35;8.60;99.90
